sensor_id;sensor_type;location;lat;lon;timestamp;P1;durP1;ratioP1;P2;durP2;ratioP2
72645;SDS011;60687;53.876;10.674;2022-07-24T00:10:14;6.87;;;2.00;;
72645;SDS011;60687;53.876;10.674;2022-07-24T00:20:38;7.40;;;2.22;;
72645;SDS011;60687;53.876;10.674;2022-07-24T01:26:17;6.87;;;2.43;;
72645;SDS011;60687;53.876;10.674;2022-07-24T01:36:29;8.43;;;2.92;;
72645;SDS011;60687;53.876;10.674;2022-07-24T01:46:44;8.77;;;3.03;;
72645;SDS011;60687;53.876;10.674;2022-07-24T01:57:07;6.20;;;2.20;;
72645;SDS011;60687;53.876;10.674;2022-07-24T02:18:05;7.23;;;2.53;;
72645;SDS011;60687;53.876;10.674;2022-07-24T02:28:24;7.63;;;2.47;;
72645;SDS011;60687;53.876;10.674;2022-07-24T02:38:42;7.28;;;2.70;;
72645;SDS011;60687;53.876;10.674;2022-07-24T02:48:46;6.35;;;2.63;;
72645;SDS011;60687;53.876;10.674;2022-07-24T02:58:59;7.03;;;3.00;;
72645;SDS011;60687;53.876;10.674;2022-07-24T03:09:03;7.47;;;2.70;;
72645;SDS011;60687;53.876;10.674;2022-07-24T03:19:10;6.88;;;2.40;;
72645;SDS011;60687;53.876;10.674;2022-07-24T03:29:31;8.53;;;2.70;;
72645;SDS011;60687;53.876;10.674;2022-07-24T03:49:51;7.55;;;2.97;;
72645;SDS011;60687;53.876;10.674;2022-07-24T04:10:24;6.87;;;2.70;;
72645;SDS011;60687;53.876;10.674;2022-07-24T04:20:37;8.18;;;2.83;;
72645;SDS011;60687;53.876;10.674;2022-07-24T04:41:13;7.57;;;2.83;;
72645;SDS011;60687;53.876;10.674;2022-07-24T04:51:17;7.30;;;2.90;;
72645;SDS011;60687;53.876;10.674;2022-07-24T05:01:21;7.05;;;2.30;;
72645;SDS011;60687;53.876;10.674;2022-07-24T05:11:23;7.57;;;2.50;;
72645;SDS011;60687;53.876;10.674;2022-07-24T05:21:27;6.63;;;2.30;;
72645;SDS011;60687;53.876;10.674;2022-07-24T05:31:30;7.88;;;3.00;;
72645;SDS011;60687;53.876;10.674;2022-07-24T05:41:33;6.30;;;2.40;;
72645;SDS011;60687;53.876;10.674;2022-07-24T05:51:35;6.27;;;1.90;;
72645;SDS011;60687;53.876;10.674;2022-07-24T06:01:39;6.70;;;2.50;;
72645;SDS011;60687;53.876;10.674;2022-07-24T06:11:41;7.25;;;1.65;;
72645;SDS011;60687;53.876;10.674;2022-07-24T06:21:44;6.60;;;1.90;;
72645;SDS011;60687;53.876;10.674;2022-07-24T06:31:48;5.37;;;1.73;;
72645;SDS011;60687;53.876;10.674;2022-07-24T06:41:53;6.78;;;1.70;;
72645;SDS011;60687;53.876;10.674;2022-07-24T06:51:57;5.33;;;1.50;;
72645;SDS011;60687;53.876;10.674;2022-07-24T07:02:00;5.87;;;1.53;;
72645;SDS011;60687;53.876;10.674;2022-07-24T07:12:03;4.65;;;1.55;;
72645;SDS011;60687;53.876;10.674;2022-07-24T07:22:07;4.60;;;1.40;;
72645;SDS011;60687;53.876;10.674;2022-07-24T07:32:09;5.50;;;1.70;;
72645;SDS011;60687;53.876;10.674;2022-07-24T07:42:13;6.03;;;1.80;;
72645;SDS011;60687;53.876;10.674;2022-07-24T07:52:16;5.77;;;1.63;;
72645;SDS011;60687;53.876;10.674;2022-07-24T08:02:19;5.00;;;1.70;;
72645;SDS011;60687;53.876;10.674;2022-07-24T08:12:21;4.27;;;1.40;;
72645;SDS011;60687;53.876;10.674;2022-07-24T08:22:33;5.35;;;1.55;;
72645;SDS011;60687;53.876;10.674;2022-07-24T08:32:36;5.00;;;1.80;;
72645;SDS011;60687;53.876;10.674;2022-07-24T08:42:40;7.33;;;1.60;;
72645;SDS011;60687;53.876;10.674;2022-07-24T08:52:42;4.45;;;1.25;;
72645;SDS011;60687;53.876;10.674;2022-07-24T09:02:47;5.30;;;1.33;;
72645;SDS011;60687;53.876;10.674;2022-07-24T09:12:49;5.80;;;1.63;;
72645;SDS011;60687;53.876;10.674;2022-07-24T09:23:00;3.63;;;1.23;;
72645;SDS011;60687;53.876;10.674;2022-07-24T09:33:03;4.97;;;1.60;;
72645;SDS011;60687;53.876;10.674;2022-07-24T09:43:15;4.40;;;1.40;;
72645;SDS011;60687;53.876;10.674;2022-07-24T09:53:19;5.10;;;1.30;;
72645;SDS011;60687;53.876;10.674;2022-07-24T10:03:25;6.13;;;1.30;;
72645;SDS011;60687;53.876;10.674;2022-07-24T10:13:36;6.60;;;1.70;;
72645;SDS011;60687;53.876;10.674;2022-07-24T14:03:56;10.30;;;5.00;;
72645;SDS011;60687;53.876;10.674;2022-07-24T17:18:00;7.27;;;2.50;;
72645;SDS011;60687;53.876;10.674;2022-07-24T17:28:17;9.23;;;4.13;;
72645;SDS011;60687;53.876;10.674;2022-07-24T17:50:35;7.07;;;2.93;;
72645;SDS011;60687;53.876;10.674;2022-07-24T18:01:16;8.93;;;4.50;;
72645;SDS011;60687;53.876;10.674;2022-07-24T18:11:26;13.70;;;6.10;;
72645;SDS011;60687;53.876;10.674;2022-07-24T18:21:29;15.43;;;7.50;;
72645;SDS011;60687;53.876;10.674;2022-07-24T18:31:34;20.88;;;10.77;;
72645;SDS011;60687;53.876;10.674;2022-07-24T18:41:36;23.60;;;11.80;;
72645;SDS011;60687;53.876;10.674;2022-07-24T18:51:40;25.40;;;14.23;;
72645;SDS011;60687;53.876;10.674;2022-07-24T19:01:42;31.65;;;16.02;;
72645;SDS011;60687;53.876;10.674;2022-07-24T19:11:46;26.87;;;14.50;;
72645;SDS011;60687;53.876;10.674;2022-07-24T19:21:51;27.42;;;13.88;;
72645;SDS011;60687;53.876;10.674;2022-07-24T19:32:03;22.00;;;11.10;;
72645;SDS011;60687;53.876;10.674;2022-07-24T19:42:05;16.80;;;8.97;;
72645;SDS011;60687;53.876;10.674;2022-07-24T19:52:09;17.27;;;9.68;;
72645;SDS011;60687;53.876;10.674;2022-07-24T20:02:13;16.60;;;8.63;;
72645;SDS011;60687;53.876;10.674;2022-07-24T20:12:17;16.97;;;9.50;;
72645;SDS011;60687;53.876;10.674;2022-07-24T20:22:19;18.70;;;10.73;;
72645;SDS011;60687;53.876;10.674;2022-07-24T20:32:22;16.33;;;9.60;;
72645;SDS011;60687;53.876;10.674;2022-07-24T20:42:24;14.80;;;8.77;;
72645;SDS011;60687;53.876;10.674;2022-07-24T20:52:43;20.63;;;11.30;;
72645;SDS011;60687;53.876;10.674;2022-07-24T21:02:45;18.23;;;10.67;;
72645;SDS011;60687;53.876;10.674;2022-07-24T21:12:48;14.85;;;7.57;;
72645;SDS011;60687;53.876;10.674;2022-07-24T21:22:50;10.17;;;5.63;;
72645;SDS011;60687;53.876;10.674;2022-07-24T21:33:09;9.23;;;4.80;;
72645;SDS011;60687;53.876;10.674;2022-07-24T21:43:12;8.52;;;4.35;;
72645;SDS011;60687;53.876;10.674;2022-07-24T21:53:15;9.97;;;4.50;;
72645;SDS011;60687;53.876;10.674;2022-07-24T22:03:17;10.37;;;4.87;;
72645;SDS011;60687;53.876;10.674;2022-07-24T22:13:40;10.00;;;4.95;;
72645;SDS011;60687;53.876;10.674;2022-07-24T22:23:51;8.10;;;4.63;;
72645;SDS011;60687;53.876;10.674;2022-07-24T22:34:22;9.67;;;5.20;;
72645;SDS011;60687;53.876;10.674;2022-07-24T22:44:34;9.02;;;5.00;;
72645;SDS011;60687;53.876;10.674;2022-07-24T22:54:38;8.60;;;4.83;;
72645;SDS011;60687;53.876;10.674;2022-07-24T23:04:42;8.73;;;4.83;;
72645;SDS011;60687;53.876;10.674;2022-07-24T23:14:45;9.60;;;5.45;;
72645;SDS011;60687;53.876;10.674;2022-07-24T23:24:48;8.63;;;4.87;;
72645;SDS011;60687;53.876;10.674;2022-07-24T23:34:57;9.97;;;5.00;;
72645;SDS011;60687;53.876;10.674;2022-07-24T23:45:00;8.73;;;4.70;;
72645;SDS011;60687;53.876;10.674;2022-07-24T23:55:05;11.23;;;5.27;;
